Time;durP1;ratioP1;P1;durP2;ratioP2;P2;SDS_P1;SDS_P2;PMS_P1;PMS_P2;Temp;Humidity;BMP_temperature;BMP_pressure;BME280_temperature;BME280_humidity;BME280_pressure;Samples;Min_cycle;Max_cycle;Signal;HPM_P1;HPM_P2
2022/01/11 00:00:25;;;;;;;19.83;14.73;;;4.40;99.90;;;;;;5051273;28;20449;-53
2022/01/11 00:02:53;;;;;;;21.20;15.53;;;4.50;99.90;;;;;;5045441;28;20441;-55
2022/01/11 00:05:26;;;;;;;21.17;13.10;;;4.60;99.90;;;;;;5047077;28;20873;-49
2022/01/11 00:07:53;;;;;;;21.13;13.90;;;4.60;99.90;;;;;;5047561;28;20441;-54
2022/01/11 00:10:28;;;;;;;25.77;15.00;;;4.60;99.90;;;;;;5046133;28;20562;-51
2022/01/11 00:12:55;;;;;;;20.93;14.63;;;4.80;99.90;;;;;;5047910;28;20441;-50
2022/01/11 00:15:21;;;;;;;18.83;14.63;;;4.90;99.90;;;;;;5048875;28;21222;-51
2022/01/11 00:17:46;;;;;;;25.37;14.53;;;4.70;99.90;;;;;;5049900;28;20760;-54
2022/01/11 00:20:15;;;;;;;27.40;13.90;;;4.80;99.90;;;;;;5046291;28;20665;-52
2022/01/11 00:25:26;;;;;;;24.03;14.50;;;4.90;99.90;;;;;;5032017;28;20812;-50
2022/01/11 00:27:52;;;;;;;19.20;13.90;;;4.90;99.90;;;;;;5047400;28;20499;-55
2022/01/11 00:30:18;;;;;;;16.37;13.00;;;4.90;99.90;;;;;;5048153;28;20445;-55
2022/01/11 00:32:49;;;;;;;20.30;13.90;;;5.00;99.90;;;;;;5047179;28;20499;-52
2022/01/11 00:35:17;;;;;;;18.73;14.47;;;5.10;99.90;;;;;;5047446;28;20445;-51
2022/01/11 00:37:44;;;;;;;18.30;12.47;;;5.10;99.90;;;;;;5051514;28;20491;-51
2022/01/11 00:40:11;;;;;;;20.63;14.17;;;5.20;99.90;;;;;;5047835;28;20475;-51
2022/01/11 00:42:37;;;;;;;19.23;14.73;;;5.10;99.90;;;;;;5044952;28;20481;-54
2022/01/11 00:45:06;;;;;;;20.83;13.70;;;5.10;99.90;;;;;;5046037;28;20434;-52
2022/01/11 00:47:32;;;;;;;22.40;14.97;;;4.90;99.90;;;;;;5041312;28;21254;-52
2022/01/11 00:49:57;;;;;;;21.33;13.57;;;5.00;99.90;;;;;;5044701;28;20544;-52
2022/01/11 00:52:23;;;;;;;17.77;13.20;;;5.10;99.90;;;;;;5047095;28;20480;-51
2022/01/11 00:54:49;;;;;;;22.60;13.97;;;5.20;99.90;;;;;;5044227;28;20278;-53
2022/01/11 00:57:14;;;;;;;21.30;13.77;;;5.20;99.90;;;;;;5044527;28;20250;-52
2022/01/11 00:59:40;;;;;;;21.93;13.40;;;5.20;99.90;;;;;;5041547;28;20207;-54
2022/01/11 01:02:06;;;;;;;16.83;12.83;;;5.10;99.90;;;;;;5044246;28;21042;-53
2022/01/11 01:04:32;;;;;;;18.57;13.00;;;5.10;99.90;;;;;;5050461;28;20218;-54
2022/01/11 01:06:58;;;;;;;18.80;13.83;;;4.90;99.90;;;;;;5053389;28;20635;-54
2022/01/11 01:09:27;;;;;;;20.73;14.50;;;4.90;99.90;;;;;;5048129;28;21203;-56
2022/01/11 01:11:53;;;;;;;23.10;15.30;;;5.00;99.90;;;;;;5047346;28;20468;-53
2022/01/11 01:14:21;;;;;;;19.47;13.87;;;5.00;99.90;;;;;;5051539;28;20937;-56
2022/01/11 01:16:46;;;;;;;20.80;13.30;;;5.00;99.90;;;;;;5046278;28;20572;-53
2022/01/11 01:19:12;;;;;;;20.97;14.00;;;5.10;99.90;;;;;;5051113;28;20441;-52
2022/01/11 01:21:39;;;;;;;17.73;12.73;;;5.00;99.90;;;;;;5026871;28;20209;-51
2022/01/11 01:24:07;;;;;;;22.63;13.57;;;5.00;99.90;;;;;;5042945;28;20179;-54
2022/01/11 01:26:33;;;;;;;22.53;13.63;;;4.90;99.90;;;;;;5044351;28;20462;-54
2022/01/11 01:29:00;;;;;;;24.10;13.97;;;5.00;99.90;;;;;;5044791;28;20433;-55
2022/01/11 01:31:27;;;;;;;20.83;12.97;;;4.90;99.90;;;;;;5044634;28;20430;-54
2022/01/11 01:33:53;;;;;;;24.03;13.57;;;5.00;99.90;;;;;;5044979;28;20471;-52
2022/01/11 01:36:19;;;;;;;24.70;13.53;;;5.00;99.90;;;;;;5054410;28;20460;-51
2022/01/11 01:38:45;;;;;;;22.53;13.97;;;4.90;99.90;;;;;;5049342;28;20457;-54
2022/01/11 01:41:19;;;;;;;22.10;14.33;;;5.00;99.90;;;;;;5031225;28;20325;-50
2022/01/11 01:43:47;;;;;;;19.63;12.60;;;5.00;99.90;;;;;;5049034;28;20176;-48
2022/01/11 01:46:14;;;;;;;17.57;11.23;;;5.00;99.90;;;;;;5044510;28;20483;-48
2022/01/11 01:48:40;;;;;;;19.17;12.50;;;5.10;99.90;;;;;;5046684;28;20486;-48
2022/01/11 01:51:08;;;;;;;19.40;12.60;;;5.00;99.90;;;;;;5047073;28;20750;-50
2022/01/11 01:53:39;;;;;;;19.03;12.60;;;4.90;99.90;;;;;;5047137;28;20437;-50
2022/01/11 01:56:06;;;;;;;22.57;13.60;;;4.90;99.90;;;;;;5046667;28;20468;-52
2022/01/11 01:58:32;;;;;;;21.03;14.00;;;4.80;99.90;;;;;;5047146;28;20972;-54
2022/01/11 02:01:03;;;;;;;16.57;12.53;;;4.70;99.90;;;;;;5047913;28;20483;-54
2022/01/11 02:03:31;;;;;;;21.60;13.90;;;4.70;99.90;;;;;;5051465;28;20184;-53
2022/01/11 02:05:58;;;;;;;21.67;13.47;;;4.60;99.90;;;;;;5051307;28;20534;-49
2022/01/11 02:08:25;;;;;;;20.93;13.63;;;4.70;99.90;;;;;;5034382;28;20981;-55
2022/01/11 02:10:52;;;;;;;22.63;13.83;;;4.60;99.90;;;;;;5050101;28;20437;-53
2022/01/11 02:13:18;;;;;;;22.63;14.47;;;4.60;99.90;;;;;;5047538;28;20445;-53
2022/01/11 02:15:44;;;;;;;24.17;15.90;;;4.60;99.90;;;;;;5054982;28;20464;-55
2022/01/11 02:18:20;;;;;;;23.53;15.50;;;4.60;99.90;;;;;;5048338;28;20187;-50
2022/01/11 02:20:47;;;;;;;29.40;14.17;;;4.70;99.90;;;;;;5051795;28;20934;-53
2022/01/11 02:23:14;;;;;;;21.70;14.20;;;4.50;99.90;;;;;;5054799;28;20930;-54
2022/01/11 02:25:41;;;;;;;23.83;15.50;;;4.60;99.90;;;;;;5028237;28;20468;-51
2022/01/11 02:28:08;;;;;;;28.43;15.73;;;4.50;99.90;;;;;;5047756;28;20432;-52
2022/01/11 02:30:34;;;;;;;27.83;15.37;;;4.50;99.90;;;;;;5051655;28;20433;-52
2022/01/11 02:33:03;;;;;;;22.53;15.67;;;4.60;99.90;;;;;;5047730;28;20448;-52
2022/01/11 02:35:29;;;;;;;27.17;14.60;;;4.70;99.90;;;;;;5051250;28;20489;-53
2022/01/11 02:37:55;;;;;;;26.90;14.33;;;4.70;99.90;;;;;;5043577;28;20532;-54
2022/01/11 02:40:20;;;;;;;20.43;14.13;;;4.70;99.90;;;;;;5055411;28;20191;-49
2022/01/11 02:42:46;;;;;;;20.53;13.27;;;4.70;99.90;;;;;;5048881;28;20444;-56
2022/01/11 02:45:17;;;;;;;25.87;13.83;;;4.70;99.90;;;;;;5046299;28;20187;-53
2022/01/11 02:47:46;;;;;;;21.30;13.50;;;4.60;99.90;;;;;;5054325;28;20635;-50
2022/01/11 02:50:12;;;;;;;19.37;13.40;;;4.70;99.90;;;;;;5050055;28;20436;-56
2022/01/11 02:52:38;;;;;;;22.03;13.83;;;4.70;99.90;;;;;;5048197;28;20430;-51
2022/01/11 02:55:10;;;;;;;21.73;14.67;;;4.80;99.90;;;;;;5047485;28;20464;-52
2022/01/11 02:57:36;;;;;;;23.93;13.17;;;4.80;99.90;;;;;;5047638;28;20546;-55
2022/01/11 03:00:08;;;;;;;19.20;14.33;;;4.70;99.90;;;;;;5054371;28;20446;-52
2022/01/11 03:02:34;;;;;;;22.30;13.70;;;4.60;99.90;;;;;;5050989;28;20469;-53
2022/01/11 03:04:59;;;;;;;19.63;13.30;;;4.60;99.90;;;;;;5046064;28;20430;-53
2022/01/11 03:07:25;;;;;;;23.10;14.13;;;4.60;99.90;;;;;;5050963;28;20461;-53
2022/01/11 03:10:05;;;;;;;20.03;12.93;;;4.60;99.90;;;;;;5053138;28;20186;-52
2022/01/11 03:12:31;;;;;;;22.23;13.73;;;4.70;99.90;;;;;;5047811;28;20183;-53
2022/01/11 03:14:57;;;;;;;24.57;14.40;;;4.60;99.90;;;;;;5048155;28;20453;-52
2022/01/11 03:17:25;;;;;;;21.23;14.63;;;4.70;99.90;;;;;;5049712;28;20213;-54
2022/01/11 03:19:52;;;;;;;19.63;14.33;;;4.50;99.90;;;;;;5048096;28;20446;-55
2022/01/11 03:22:17;;;;;;;25.90;14.17;;;4.60;99.90;;;;;;5049987;28;20480;-56
2022/01/11 03:24:44;;;;;;;24.20;14.80;;;4.40;99.90;;;;;;5047317;28;20434;-54
2022/01/11 03:27:09;;;;;;;23.30;14.20;;;4.50;99.90;;;;;;5045982;28;20238;-53
2022/01/11 03:29:37;;;;;;;21.30;15.23;;;4.40;99.90;;;;;;5048002;28;20429;-53
2022/01/11 03:32:04;;;;;;;19.27;13.00;;;4.30;99.90;;;;;;5048272;28;20457;-49
2022/01/11 03:34:31;;;;;;;23.90;15.40;;;4.30;99.90;;;;;;5049773;28;20450;-56
2022/01/11 03:36:57;;;;;;;24.40;15.10;;;4.20;99.90;;;;;;5047953;28;20461;-51
2022/01/11 03:39:25;;;;;;;35.23;15.20;;;4.20;99.90;;;;;;5032074;28;20946;-53
2022/01/11 03:41:50;;;;;;;23.10;14.00;;;4.30;99.90;;;;;;5052062;28;20568;-55
2022/01/11 03:44:16;;;;;;;28.80;16.20;;;4.30;99.90;;;;;;5031441;28;20446;-53
2022/01/11 03:46:42;;;;;;;21.77;14.73;;;4.40;99.90;;;;;;5048554;28;20314;-52
2022/01/11 03:49:08;;;;;;;23.00;15.63;;;4.50;99.90;;;;;;5050049;28;20445;-52
2022/01/11 03:51:36;;;;;;;20.70;15.47;;;4.40;99.90;;;;;;5048560;28;20192;-52
2022/01/11 03:54:09;;;;;;;24.30;15.27;;;4.40;99.90;;;;;;5047738;28;20195;-52
2022/01/11 03:56:35;;;;;;;28.10;15.23;;;4.40;99.90;;;;;;5046200;28;20470;-51
2022/01/11 03:59:06;;;;;;;27.97;15.80;;;4.50;99.90;;;;;;5048896;28;20450;-48
2022/01/11 04:01:32;;;;;;;24.93;15.60;;;4.60;99.90;;;;;;5045594;28;20540;-55
2022/01/11 04:03:58;;;;;;;27.33;14.80;;;4.50;99.90;;;;;;5045896;28;20451;-53
2022/01/11 04:06:25;;;;;;;18.33;13.83;;;4.50;99.90;;;;;;5048079;28;20457;-53
2022/01/11 04:08:52;;;;;;;25.87;16.23;;;4.40;99.90;;;;;;5050699;28;20192;-52
2022/01/11 04:11:17;;;;;;;24.77;15.20;;;4.30;99.90;;;;;;5046293;28;20511;-50
2022/01/11 04:13:44;;;;;;;22.50;15.30;;;4.30;99.90;;;;;;5045075;28;20442;-55
2022/01/11 04:16:09;;;;;;;22.23;14.63;;;4.30;99.90;;;;;;5046702;28;20208;-50
2022/01/11 04:18:35;;;;;;;21.23;15.17;;;4.40;99.90;;;;;;5049251;28;20905;-54
2022/01/11 04:21:01;;;;;;;23.17;14.60;;;4.30;99.90;;;;;;5046168;28;20203;-52
2022/01/11 04:23:27;;;;;;;29.10;15.50;;;4.30;99.90;;;;;;5032733;28;20226;-53
2022/01/11 04:25:53;;;;;;;23.73;14.63;;;4.40;99.90;;;;;;5049848;28;20734;-50
2022/01/11 04:28:19;;;;;;;24.17;14.50;;;4.30;99.90;;;;;;5054951;28;20441;-49
2022/01/11 04:30:44;;;;;;;20.90;14.60;;;4.30;99.90;;;;;;5053549;28;20213;-52
2022/01/11 04:33:10;;;;;;;25.07;14.30;;;4.30;99.90;;;;;;5050770;28;20437;-55
2022/01/11 04:35:36;;;;;;;24.33;15.03;;;4.40;99.90;;;;;;5053512;28;20207;-51
2022/01/11 04:38:02;;;;;;;24.50;15.10;;;4.40;99.90;;;;;;5049756;28;20445;-51
2022/01/11 04:40:28;;;;;;;19.10;15.17;;;4.40;99.90;;;;;;5045311;28;20457;-50
2022/01/11 04:42:53;;;;;;;22.60;15.40;;;4.30;99.90;;;;;;5054713;28;24124;-52
2022/01/11 04:45:19;;;;;;;25.70;15.53;;;4.20;99.90;;;;;;5046265;28;20632;-52
2022/01/11 04:47:46;;;;;;;25.93;16.80;;;4.30;99.90;;;;;;5047231;28;20201;-54
2022/01/11 04:50:12;;;;;;;23.73;14.67;;;4.30;99.90;;;;;;5053370;28;20473;-49
2022/01/11 04:52:38;;;;;;;28.47;15.43;;;4.40;99.90;;;;;;5048987;28;20446;-49
2022/01/11 04:55:05;;;;;;;26.13;16.60;;;4.30;99.90;;;;;;5047118;28;20616;-52
2022/01/11 04:57:30;;;;;;;25.73;15.17;;;4.20;99.90;;;;;;5047287;28;20198;-54
2022/01/11 04:59:56;;;;;;;23.47;15.30;;;4.30;99.90;;;;;;5047531;28;20442;-50
2022/01/11 05:02:22;;;;;;;21.50;14.60;;;4.20;99.90;;;;;;5051439;28;20207;-52
2022/01/11 05:04:48;;;;;;;25.73;16.13;;;4.30;99.90;;;;;;5047262;28;20187;-51
2022/01/11 05:07:13;;;;;;;29.67;16.13;;;4.20;99.90;;;;;;5047030;28;20510;-50
2022/01/11 05:09:39;;;;;;;26.13;15.10;;;4.20;99.90;;;;;;5048030;28;20548;-51
2022/01/11 05:12:05;;;;;;;22.10;15.00;;;4.30;99.90;;;;;;5048310;28;20260;-50
2022/01/11 05:14:31;;;;;;;20.03;14.83;;;4.10;99.90;;;;;;5049324;28;20184;-51
2022/01/11 05:16:56;;;;;;;23.60;13.83;;;4.00;99.90;;;;;;5052492;28;20556;-52
2022/01/11 05:19:22;;;;;;;21.47;14.50;;;4.20;99.90;;;;;;5045449;28;20225;-50
2022/01/11 05:21:47;;;;;;;21.90;14.07;;;4.30;99.90;;;;;;5044216;28;20267;-53
2022/01/11 05:24:13;;;;;;;23.57;14.40;;;4.40;99.90;;;;;;5051384;28;20221;-50
2022/01/11 05:26:39;;;;;;;22.90;13.90;;;4.40;99.90;;;;;;5051192;28;20223;-50
2022/01/11 05:29:05;;;;;;;24.93;13.80;;;4.50;99.90;;;;;;5047589;28;20199;-52
2022/01/11 05:31:33;;;;;;;25.53;14.30;;;4.60;99.90;;;;;;5051286;28;20196;-54
2022/01/11 05:33:58;;;;;;;23.20;13.80;;;4.50;99.90;;;;;;5047668;28;20548;-48
2022/01/11 05:36:24;;;;;;;25.70;14.67;;;4.40;99.90;;;;;;5046291;28;20470;-55
2022/01/11 05:38:49;;;;;;;19.53;13.43;;;4.40;99.90;;;;;;5050074;28;20214;-52
2022/01/11 05:41:15;;;;;;;22.30;13.30;;;4.50;99.90;;;;;;5048897;28;20727;-53
2022/01/11 05:43:41;;;;;;;19.00;13.47;;;4.60;99.90;;;;;;5044008;28;20230;-54
2022/01/11 05:46:06;;;;;;;18.83;12.67;;;4.60;99.90;;;;;;5051009;28;20775;-50
2022/01/11 05:48:32;;;;;;;20.13;13.17;;;4.60;99.90;;;;;;5026970;28;20628;-49
2022/01/11 05:51:01;;;;;;;23.90;13.90;;;4.50;99.90;;;;;;5047368;28;20278;-52
2022/01/11 05:53:27;;;;;;;28.67;13.40;;;4.50;99.90;;;;;;5047512;28;20545;-54
2022/01/11 05:55:52;;;;;;;25.93;15.17;;;4.70;99.90;;;;;;5046074;28;20488;-52
2022/01/11 05:58:18;;;;;;;18.83;12.63;;;4.60;99.90;;;;;;5047056;28;20557;-52
2022/01/11 06:00:44;;;;;;;21.10;13.60;;;4.60;99.90;;;;;;5049457;28;20191;-55
2022/01/11 06:03:09;;;;;;;24.40;14.87;;;4.60;99.90;;;;;;5047427;28;20737;-52
2022/01/11 06:05:38;;;;;;;29.83;15.73;;;4.70;99.90;;;;;;5049013;28;20203;-53
2022/01/11 06:08:05;;;;;;;24.33;14.07;;;4.70;99.90;;;;;;5046355;28;20191;-51
2022/01/11 06:10:31;;;;;;;22.70;14.07;;;4.70;99.90;;;;;;5048790;28;20817;-49
2022/01/11 06:12:57;;;;;;;21.77;14.37;;;4.70;99.90;;;;;;5044255;28;20434;-50
2022/01/11 06:15:23;;;;;;;21.20;14.80;;;4.80;99.90;;;;;;5047016;28;20469;-54
2022/01/11 06:17:49;;;;;;;29.40;15.30;;;4.80;99.90;;;;;;5041729;28;20563;-54
2022/01/11 06:20:15;;;;;;;25.30;14.60;;;4.60;99.90;;;;;;5047720;28;20195;-52
2022/01/11 06:22:41;;;;;;;27.97;14.10;;;4.70;99.90;;;;;;5044351;28;20461;-51
2022/01/11 06:25:08;;;;;;;27.67;14.37;;;4.80;99.90;;;;;;5047856;28;20211;-53
2022/01/11 06:27:34;;;;;;;20.70;13.47;;;4.80;99.90;;;;;;5050254;28;20500;-50
2022/01/11 06:29:59;;;;;;;22.93;14.47;;;4.80;99.90;;;;;;5046411;28;20489;-52
2022/01/11 06:32:26;;;;;;;23.63;14.50;;;4.90;99.90;;;;;;5045398;28;20899;-55
2022/01/11 06:34:53;;;;;;;25.57;13.70;;;4.80;99.90;;;;;;5048745;28;20199;-55
2022/01/11 06:37:19;;;;;;;24.73;14.03;;;4.80;99.90;;;;;;5049463;28;20814;-50
2022/01/11 06:39:44;;;;;;;20.80;13.43;;;4.80;99.90;;;;;;5046352;28;20450;-53
2022/01/11 06:42:10;;;;;;;25.70;14.17;;;4.80;99.90;;;;;;5044061;28;20564;-51
2022/01/11 06:44:37;;;;;;;22.07;13.70;;;4.80;99.90;;;;;;5037530;28;20918;-50
2022/01/11 06:47:03;;;;;;;23.10;14.33;;;4.90;99.90;;;;;;5050132;28;20215;-54
2022/01/11 06:49:29;;;;;;;23.80;14.13;;;5.00;99.90;;;;;;5054846;28;20464;-55
2022/01/11 06:51:54;;;;;;;21.10;13.50;;;4.90;99.90;;;;;;5048448;28;21024;-50
2022/01/11 06:54:20;;;;;;;19.67;13.50;;;4.90;99.90;;;;;;5046332;28;20191;-51
2022/01/11 06:56:45;;;;;;;16.90;12.20;;;4.80;99.90;;;;;;5054300;28;20219;-55
2022/01/11 06:59:11;;;;;;;21.80;13.87;;;4.90;99.90;;;;;;5040450;28;20202;-55
2022/01/11 07:01:38;;;;;;;22.33;14.07;;;4.60;99.90;;;;;;5053013;28;20580;-52
2022/01/11 07:04:04;;;;;;;23.63;12.37;;;4.60;99.90;;;;;;5055677;28;20294;-54
2022/01/11 07:06:29;;;;;;;24.70;13.70;;;4.60;99.90;;;;;;5057365;28;20883;-54
2022/01/11 07:08:55;;;;;;;20.00;13.20;;;4.80;99.90;;;;;;5053563;28;20176;-52
2022/01/11 07:11:23;;;;;;;19.47;13.20;;;4.80;99.90;;;;;;5054508;28;20237;-53
2022/01/11 07:13:49;;;;;;;22.77;14.10;;;4.80;99.90;;;;;;5046875;28;20568;-54
2022/01/11 07:16:14;;;;;;;23.27;14.63;;;4.80;99.90;;;;;;5042302;28;20469;-53
2022/01/11 07:18:40;;;;;;;22.70;13.43;;;4.70;99.90;;;;;;5052252;28;20189;-52
2022/01/11 07:21:05;;;;;;;22.30;14.43;;;4.60;99.90;;;;;;5049944;28;20216;-51
2022/01/11 07:23:31;;;;;;;19.37;13.87;;;4.60;99.90;;;;;;5040139;28;20203;-50
2022/01/11 07:25:57;;;;;;;27.50;14.10;;;4.60;99.90;;;;;;5051372;28;20253;-54
2022/01/11 07:28:23;;;;;;;23.30;13.93;;;4.60;99.90;;;;;;5032012;28;20184;-50
2022/01/11 07:30:50;;;;;;;22.90;14.13;;;4.50;99.90;;;;;;5047613;28;20647;-52
2022/01/11 07:33:16;;;;;;;19.77;13.83;;;4.60;99.90;;;;;;5047362;28;20454;-51
2022/01/11 07:35:42;;;;;;;30.17;17.70;;;4.50;99.90;;;;;;5052567;28;21051;-51
2022/01/11 07:38:08;;;;;;;21.83;13.77;;;4.50;99.90;;;;;;5043834;28;20551;-54
2022/01/11 07:40:34;;;;;;;21.80;13.07;;;4.60;99.90;;;;;;5046912;28;20314;-55
2022/01/11 07:42:59;;;;;;;24.70;13.33;;;4.70;99.90;;;;;;5048514;28;21021;-55
2022/01/11 07:45:25;;;;;;;26.83;13.23;;;4.70;99.90;;;;;;5046579;28;20218;-55
2022/01/11 07:47:50;;;;;;;22.53;14.40;;;4.70;99.90;;;;;;5055104;28;20187;-55
2022/01/11 07:50:16;;;;;;;23.60;13.97;;;4.80;99.90;;;;;;5050341;28;20519;-52
2022/01/11 07:52:42;;;;;;;16.93;12.27;;;4.80;99.90;;;;;;5050303;28;20203;-53
2022/01/11 07:55:08;;;;;;;21.00;13.67;;;4.70;99.90;;;;;;5054422;28;20687;-54
2022/01/11 07:57:34;;;;;;;18.63;13.57;;;4.70;99.90;;;;;;5052285;28;20458;-55
2022/01/11 07:59:59;;;;;;;22.17;13.03;;;4.70;99.90;;;;;;5051501;28;20496;-54
2022/01/11 08:02:26;;;;;;;21.60;13.60;;;4.80;99.90;;;;;;5054247;28;20474;-54
2022/01/11 08:04:53;;;;;;;20.97;12.33;;;4.80;99.90;;;;;;5053225;28;20182;-55
2022/01/11 08:07:19;;;;;;;20.40;13.00;;;4.80;99.90;;;;;;5048890;28;20462;-53
2022/01/11 08:09:45;;;;;;;25.27;14.60;;;4.80;99.90;;;;;;5042630;28;20442;-54
2022/01/11 08:12:11;;;;;;;21.77;12.60;;;4.90;99.90;;;;;;5049530;28;20536;-54
2022/01/11 08:14:37;;;;;;;24.50;14.13;;;4.90;99.90;;;;;;5025365;28;20239;-53
2022/01/11 08:17:03;;;;;;;27.23;13.20;;;5.00;99.90;;;;;;5051851;28;20552;-54
2022/01/11 08:19:30;;;;;;;22.30;12.53;;;4.80;99.90;;;;;;5051102;28;20274;-56
2022/01/11 08:21:56;;;;;;;21.23;13.90;;;4.80;99.90;;;;;;5051201;28;20243;-53
2022/01/11 08:24:23;;;;;;;22.93;14.00;;;4.90;99.90;;;;;;5050086;28;20442;-54
2022/01/11 08:26:49;;;;;;;24.57;14.40;;;5.00;99.90;;;;;;5048713;28;20587;-52
2022/01/11 08:29:17;;;;;;;17.17;11.87;;;5.00;99.90;;;;;;5054532;28;20434;-53
2022/01/11 08:31:46;;;;;;;25.40;14.17;;;5.10;99.90;;;;;;5053521;28;20800;-52
2022/01/11 08:34:14;;;;;;;24.77;15.40;;;5.20;99.90;;;;;;5036185;28;20502;-54
2022/01/11 08:36:42;;;;;;;21.77;13.33;;;5.20;99.90;;;;;;5050686;28;20522;-53
2022/01/11 08:39:10;;;;;;;22.00;13.37;;;5.20;99.90;;;;;;5054522;28;20465;-50
2022/01/11 08:41:36;;;;;;;27.20;14.17;;;5.20;99.90;;;;;;5035573;28;21317;-51
2022/01/11 08:44:02;;;;;;;19.73;13.70;;;5.30;99.90;;;;;;5052998;28;20472;-54
2022/01/11 08:46:27;;;;;;;27.53;13.77;;;5.30;99.90;;;;;;5050699;28;20200;-54
2022/01/11 08:48:53;;;;;;;23.03;12.97;;;5.30;99.90;;;;;;5052468;28;20202;-54
2022/01/11 08:51:18;;;;;;;21.90;11.80;;;5.20;99.90;;;;;;5035716;28;20199;-52
2022/01/11 08:53:44;;;;;;;22.00;13.87;;;5.10;99.90;;;;;;5048423;28;20201;-53
2022/01/11 08:56:15;;;;;;;16.07;11.73;;;5.10;99.90;;;;;;5051962;28;20222;-52
2022/01/11 08:58:41;;;;;;;27.27;13.53;;;5.10;99.90;;;;;;5042195;28;20191;-54
2022/01/11 09:01:07;;;;;;;17.60;13.57;;;5.20;99.90;;;;;;5050220;28;20473;-55
2022/01/11 09:03:32;;;;;;;19.80;11.60;;;5.10;99.90;;;;;;5054503;28;20442;-53
2022/01/11 09:05:59;;;;;;;27.20;13.47;;;5.30;99.90;;;;;;5051539;28;20665;-53
2022/01/11 09:08:25;;;;;;;18.27;12.20;;;5.40;99.90;;;;;;5051390;28;20180;-54
2022/01/11 09:10:50;;;;;;;23.43;13.37;;;5.30;99.90;;;;;;5047572;28;21115;-52
2022/01/11 09:13:18;;;;;;;20.93;12.93;;;5.50;99.90;;;;;;5052008;28;20629;-52
2022/01/11 09:15:44;;;;;;;20.97;12.93;;;5.30;99.90;;;;;;5051619;28;20676;-53
2022/01/11 09:18:10;;;;;;;20.43;13.80;;;5.40;99.90;;;;;;5050591;28;20474;-56
2022/01/11 09:20:36;;;;;;;20.33;13.00;;;5.60;99.90;;;;;;5052195;28;20175;-53
2022/01/11 09:23:02;;;;;;;19.87;12.33;;;5.60;99.90;;;;;;5050838;28;20445;-54
2022/01/11 09:25:28;;;;;;;23.27;14.47;;;5.60;99.90;;;;;;5051107;28;21013;-55
2022/01/11 09:27:54;;;;;;;20.70;12.90;;;5.50;99.90;;;;;;5053118;28;20450;-53
2022/01/11 09:30:20;;;;;;;24.23;14.63;;;5.60;99.90;;;;;;5044100;28;20187;-51
2022/01/11 09:32:46;;;;;;;31.10;14.53;;;5.70;99.90;;;;;;5042655;28;20196;-52
2022/01/11 09:35:13;;;;;;;24.13;14.87;;;5.70;99.90;;;;;;5052307;28;20811;-52
2022/01/11 09:37:39;;;;;;;24.70;14.10;;;5.80;99.90;;;;;;5052144;28;20553;-53
2022/01/11 09:40:08;;;;;;;22.80;14.30;;;5.80;99.90;;;;;;5050724;28;20481;-53
2022/01/11 09:42:33;;;;;;;21.03;13.90;;;6.00;99.90;;;;;;5048961;28;20195;-54
2022/01/11 09:45:00;;;;;;;18.83;12.60;;;6.00;99.90;;;;;;5053142;28;20781;-53
2022/01/11 09:47:26;;;;;;;25.20;14.23;;;6.00;99.90;;;;;;5052171;28;20210;-50
2022/01/11 09:49:51;;;;;;;19.87;13.87;;;6.10;99.90;;;;;;5053254;28;20558;-54
2022/01/11 09:52:17;;;;;;;21.40;14.70;;;6.10;99.90;;;;;;5049840;28;20484;-53
2022/01/11 09:54:46;;;;;;;21.93;14.23;;;6.20;99.90;;;;;;5050052;28;20195;-52
2022/01/11 09:57:13;;;;;;;22.00;14.43;;;6.20;99.90;;;;;;5048840;28;20225;-55
2022/01/11 09:59:39;;;;;;;26.30;15.73;;;6.20;99.90;;;;;;5045938;28;20786;-54
2022/01/11 10:02:06;;;;;;;21.90;14.33;;;6.20;99.90;;;;;;5050616;28;20506;-56
2022/01/11 10:04:34;;;;;;;19.13;13.20;;;6.20;99.90;;;;;;5034756;28;21908;-52
2022/01/11 10:07:03;;;;;;;22.07;15.50;;;6.30;99.90;;;;;;5051884;28;20450;-54
2022/01/11 10:09:30;;;;;;;28.37;15.00;;;6.30;99.90;;;;;;5052898;28;20426;-51
2022/01/11 10:11:59;;;;;;;18.83;14.37;;;6.50;99.90;;;;;;5052505;28;20482;-49
2022/01/11 10:14:24;;;;;;;20.07;13.17;;;6.60;99.90;;;;;;5051310;28;20569;-53
2022/01/11 10:17:17;;;;;;;20.60;12.60;;;6.70;99.90;;;;;;5047705;28;20464;-53
2022/01/11 10:20:04;;;;;;;19.53;13.30;;;6.70;99.90;;;;;;5050149;28;20187;-51
2022/01/11 10:22:31;;;;;;;23.00;13.33;;;6.70;99.90;;;;;;5044821;28;20461;-53
2022/01/11 10:24:59;;;;;;;21.33;14.13;;;6.70;99.90;;;;;;5035376;28;20958;-54
2022/01/11 10:27:34;;;;;;;20.77;14.30;;;6.70;99.90;;;;;;5054597;28;20480;-53
2022/01/11 10:30:13;;;;;;;19.57;13.50;;;6.50;99.90;;;;;;5050332;28;20429;-56
2022/01/11 10:32:45;;;;;;;19.77;14.83;;;6.70;99.90;;;;;;5053085;28;20441;-52
2022/01/11 10:35:12;;;;;;;25.63;14.53;;;6.70;99.90;;;;;;5048144;28;20437;-54
2022/01/11 10:37:43;;;;;;;26.47;17.13;;;6.70;99.90;;;;;;5050317;28;20457;-54
2022/01/11 10:40:17;;;;;;;19.87;13.63;;;6.80;99.90;;;;;;5023755;28;20442;-52
2022/01/11 10:43:19;;;;;;;24.23;14.80;;;7.00;99.90;;;;;;5053192;28;20567;-52
2022/01/11 10:45:58;;;;;;;26.77;14.20;;;6.80;99.90;;;;;;4958069;28;20461;-52
2022/01/11 10:48:27;;;;;;;26.10;14.90;;;6.90;99.90;;;;;;5042151;28;20459;-51
2022/01/11 10:50:58;;;;;;;23.80;14.00;;;6.80;99.90;;;;;;5034989;28;20440;-52
2022/01/11 10:53:26;;;;;;;21.03;13.50;;;7.00;99.90;;;;;;5051695;28;20446;-52
2022/01/11 10:55:55;;;;;;;22.57;14.97;;;6.90;99.90;;;;;;5036559;28;20476;-51
2022/01/11 10:58:22;;;;;;;25.43;16.03;;;6.90;99.90;;;;;;5051435;28;20946;-49
2022/01/11 11:00:51;;;;;;;20.50;14.00;;;7.00;99.90;;;;;;5052939;28;20563;-54
2022/01/11 11:03:19;;;;;;;26.37;14.63;;;7.00;99.90;;;;;;5048222;28;20837;-48
2022/01/11 11:05:49;;;;;;;26.93;14.53;;;7.20;99.90;;;;;;5033403;28;20466;-51
2022/01/11 11:08:17;;;;;;;22.47;14.87;;;7.30;99.90;;;;;;5054015;28;20610;-48
2022/01/11 11:10:59;;;;;;;26.73;14.03;;;7.30;99.90;;;;;;5055337;28;21875;-54
2022/01/11 11:13:34;;;;;;;18.47;13.53;;;7.30;99.90;;;;;;5052820;28;20486;-48
2022/01/11 11:16:00;;;;;;;17.70;13.17;;;7.50;99.90;;;;;;5055584;28;20832;-55
2022/01/11 11:18:29;;;;;;;23.10;14.00;;;7.60;99.90;;;;;;5051175;28;20503;-49
2022/01/11 11:20:56;;;;;;;23.03;14.40;;;7.60;99.90;;;;;;5056321;28;20180;-52
2022/01/11 11:23:22;;;;;;;21.20;14.57;;;7.60;99.90;;;;;;5054688;28;20783;-54
2022/01/11 11:25:48;;;;;;;21.23;14.23;;;7.60;99.90;;;;;;5054197;28;20454;-53
2022/01/11 11:28:14;;;;;;;28.47;15.57;;;7.60;99.90;;;;;;5054433;28;20846;-51
2022/01/11 11:30:41;;;;;;;20.67;15.37;;;7.80;99.90;;;;;;5052809;28;20241;-53
2022/01/11 11:33:07;;;;;;;22.37;14.10;;;7.70;99.90;;;;;;5054456;28;20490;-53
2022/01/11 11:35:33;;;;;;;20.30;12.70;;;7.70;99.90;;;;;;5041984;28;20483;-51
2022/01/11 11:38:03;;;;;;;21.57;14.43;;;7.80;99.90;;;;;;5051159;28;20435;-51
2022/01/11 11:40:30;;;;;;;21.63;14.00;;;8.00;99.90;;;;;;5049179;28;20434;-49
2022/01/11 11:43:01;;;;;;;24.27;13.10;;;8.00;99.90;;;;;;5040728;28;20519;-52
2022/01/11 11:45:34;;;;;;;19.83;14.70;;;8.10;99.90;;;;;;5050542;28;20456;-50
2022/01/11 11:48:03;;;;;;;19.50;14.47;;;8.20;99.90;;;;;;5052843;28;20895;-50
2022/01/11 11:50:28;;;;;;;24.23;14.40;;;8.20;99.90;;;;;;5045597;28;20453;-54
2022/01/11 11:52:54;;;;;;;21.20;14.27;;;8.30;99.90;;;;;;5045194;28;20521;-51
2022/01/11 11:55:28;;;;;;;22.40;14.40;;;8.40;99.90;;;;;;5046096;28;20179;-53
2022/01/11 11:58:01;;;;;;;18.33;12.97;;;8.40;99.90;;;;;;5050079;28;21125;-51
2022/01/11 12:00:28;;;;;;;20.93;13.10;;;8.40;99.90;;;;;;5045437;28;21043;-47
2022/01/11 12:02:58;;;;;;;20.03;12.97;;;8.40;99.90;;;;;;5047785;28;20503;-48
2022/01/11 12:05:39;;;;;;;27.73;14.43;;;8.50;99.90;;;;;;5047919;28;20452;-51
2022/01/11 12:08:27;;;;;;;20.40;12.77;;;8.40;99.90;;;;;;5046366;28;21409;-52
2022/01/11 12:10:54;;;;;;;16.87;12.70;;;8.50;99.90;;;;;;5048697;28;20447;-54
2022/01/11 12:13:41;;;;;;;18.77;11.67;;;8.60;99.90;;;;;;5046891;28;20441;-55
2022/01/11 12:16:30;;;;;;;16.73;11.20;;;8.50;99.90;;;;;;5047840;28;20859;-51
2022/01/11 12:18:57;;;;;;;16.40;11.67;;;8.50;99.90;;;;;;5050900;28;21812;-52
2022/01/11 12:21:28;;;;;;;16.47;11.50;;;8.50;99.90;;;;;;5043907;28;20464;-53
2022/01/11 12:23:58;;;;;;;16.30;11.13;;;8.60;99.90;;;;;;5043351;28;20438;-50
2022/01/11 12:26:34;;;;;;;17.20;11.47;;;8.50;99.90;;;;;;5047950;28;20489;-52
2022/01/11 12:29:03;;;;;;;15.07;10.40;;;8.40;99.90;;;;;;5048848;28;20448;-54
2022/01/11 12:31:36;;;;;;;17.03;11.70;;;8.50;99.90;;;;;;5049769;28;20544;-51
2022/01/11 12:34:02;;;;;;;18.50;11.77;;;8.50;99.90;;;;;;5051877;28;20440;-53
2022/01/11 12:36:52;;;;;;;20.40;10.80;;;8.50;99.90;;;;;;5051972;28;20821;-53
2022/01/11 12:39:19;;;;;;;16.30;10.20;;;8.60;99.90;;;;;;5048930;28;20584;-53